Terminal Aerodrome Forecast
Issued by NWS Shreveport, LA

Home | Current Version | Previous Version | Text Only | Print | Product List | Glossary On
Versions: 1 2 3 4 5 6 7 8 9 10 11 12
000
FTUS44 KSHV 250549
TAFTYR
TAF
KTYR 250549Z 2506/2606 18007KT P6SM FEW250
     FM250800 19008KT P6SM SCT250
     FM251300 16005KT P6SM SCT140 SCT250
     FM251900 07005KT P6SM BKN140
     FM252100 36007KT P6SM SCT250
     FM260200 03005KT P6SM SKC=

USA.gov is the U.S. government's official web portal to all federal, state and local government web resources and services.